sensor_id;sensor_type;location;lat;lon;timestamp;P1;durP1;ratioP1;P2;durP2;ratioP2
33160;SDS011;19522;45.656;11.302;2023-12-07T00:01:25;14.68;;;9.57;;
33160;SDS011;19522;45.656;11.302;2023-12-07T00:03:51;15.13;;;9.55;;
33160;SDS011;19522;45.656;11.302;2023-12-07T00:06:16;15.52;;;9.95;;
33160;SDS011;19522;45.656;11.302;2023-12-07T00:08:42;12.88;;;8.98;;
33160;SDS011;19522;45.656;11.302;2023-12-07T00:11:10;10.38;;;7.03;;
33160;SDS011;19522;45.656;11.302;2023-12-07T00:13:36;11.88;;;7.45;;
33160;SDS011;19522;45.656;11.302;2023-12-07T00:16:01;11.90;;;7.55;;
33160;SDS011;19522;45.656;11.302;2023-12-07T00:18:27;10.05;;;7.32;;
33160;SDS011;19522;45.656;11.302;2023-12-07T00:20:52;9.80;;;7.43;;
33160;SDS011;19522;45.656;11.302;2023-12-07T00:23:18;12.80;;;8.10;;
33160;SDS011;19522;45.656;11.302;2023-12-07T00:25:43;11.80;;;8.25;;
33160;SDS011;19522;45.656;11.302;2023-12-07T00:28:11;11.68;;;7.75;;
33160;SDS011;19522;45.656;11.302;2023-12-07T00:30:36;11.60;;;7.43;;
33160;SDS011;19522;45.656;11.302;2023-12-07T00:33:02;11.80;;;8.02;;
33160;SDS011;19522;45.656;11.302;2023-12-07T00:35:27;11.55;;;7.30;;
33160;SDS011;19522;45.656;11.302;2023-12-07T00:37:54;9.80;;;6.68;;
33160;SDS011;19522;45.656;11.302;2023-12-07T00:40:21;11.85;;;7.18;;
33160;SDS011;19522;45.656;11.302;2023-12-07T00:42:47;9.30;;;6.22;;
33160;SDS011;19522;45.656;11.302;2023-12-07T00:45:13;10.68;;;6.38;;
33160;SDS011;19522;45.656;11.302;2023-12-07T00:47:39;10.10;;;6.60;;
33160;SDS011;19522;45.656;11.302;2023-12-07T00:50:05;11.20;;;6.97;;
33160;SDS011;19522;45.656;11.302;2023-12-07T00:52:31;8.57;;;5.68;;
33160;SDS011;19522;45.656;11.302;2023-12-07T00:54:57;10.63;;;6.72;;
33160;SDS011;19522;45.656;11.302;2023-12-07T00:57:22;10.55;;;6.10;;
33160;SDS011;19522;45.656;11.302;2023-12-07T00:59:48;10.25;;;6.18;;
33160;SDS011;19522;45.656;11.302;2023-12-07T01:02:13;14.27;;;6.95;;
33160;SDS011;19522;45.656;11.302;2023-12-07T01:04:39;10.00;;;6.28;;
33160;SDS011;19522;45.656;11.302;2023-12-07T01:07:04;9.73;;;5.97;;
33160;SDS011;19522;45.656;11.302;2023-12-07T01:09:30;8.77;;;5.60;;
33160;SDS011;19522;45.656;11.302;2023-12-07T01:11:55;9.02;;;6.50;;
33160;SDS011;19522;45.656;11.302;2023-12-07T01:14:23;9.38;;;5.35;;
33160;SDS011;19522;45.656;11.302;2023-12-07T01:16:48;9.40;;;6.28;;
33160;SDS011;19522;45.656;11.302;2023-12-07T01:19:14;7.65;;;4.70;;
33160;SDS011;19522;45.656;11.302;2023-12-07T01:21:42;6.78;;;4.72;;
33160;SDS011;19522;45.656;11.302;2023-12-07T01:24:08;7.22;;;4.65;;
33160;SDS011;19522;45.656;11.302;2023-12-07T01:26:34;6.97;;;4.80;;
33160;SDS011;19522;45.656;11.302;2023-12-07T01:29:00;8.73;;;5.03;;
33160;SDS011;19522;45.656;11.302;2023-12-07T01:31:25;8.68;;;5.32;;
33160;SDS011;19522;45.656;11.302;2023-12-07T01:33:51;8.57;;;5.10;;
33160;SDS011;19522;45.656;11.302;2023-12-07T01:36:16;8.10;;;5.05;;
33160;SDS011;19522;45.656;11.302;2023-12-07T01:38:45;8.73;;;5.10;;
33160;SDS011;19522;45.656;11.302;2023-12-07T01:41:10;10.63;;;6.03;;
33160;SDS011;19522;45.656;11.302;2023-12-07T01:43:36;7.80;;;5.03;;
33160;SDS011;19522;45.656;11.302;2023-12-07T01:46:02;9.95;;;4.95;;
33160;SDS011;19522;45.656;11.302;2023-12-07T01:48:28;7.68;;;4.93;;
33160;SDS011;19522;45.656;11.302;2023-12-07T01:50:55;5.88;;;3.95;;
33160;SDS011;19522;45.656;11.302;2023-12-07T01:53:23;8.93;;;4.88;;
33160;SDS011;19522;45.656;11.302;2023-12-07T01:55:51;7.30;;;5.15;;
33160;SDS011;19522;45.656;11.302;2023-12-07T01:58:18;7.78;;;4.75;;
33160;SDS011;19522;45.656;11.302;2023-12-07T02:00:47;6.90;;;4.07;;
33160;SDS011;19522;45.656;11.302;2023-12-07T02:03:14;7.25;;;4.07;;
33160;SDS011;19522;45.656;11.302;2023-12-07T02:05:42;5.45;;;4.07;;
33160;SDS011;19522;45.656;11.302;2023-12-07T02:08:11;6.28;;;4.00;;
33160;SDS011;19522;45.656;11.302;2023-12-07T02:10:36;6.47;;;3.95;;
33160;SDS011;19522;45.656;11.302;2023-12-07T02:13:02;4.93;;;3.45;;
33160;SDS011;19522;45.656;11.302;2023-12-07T02:15:28;4.75;;;3.53;;
33160;SDS011;19522;45.656;11.302;2023-12-07T02:23:37;6.80;;;3.47;;
33160;SDS011;19522;45.656;11.302;2023-12-07T02:26:19;4.82;;;3.10;;
33160;SDS011;19522;45.656;11.302;2023-12-07T02:28:48;5.38;;;3.63;;
33160;SDS011;19522;45.656;11.302;2023-12-07T02:31:13;5.28;;;3.55;;
33160;SDS011;19522;45.656;11.302;2023-12-07T02:33:39;5.95;;;3.53;;
33160;SDS011;19522;45.656;11.302;2023-12-07T02:36:05;4.85;;;3.58;;
33160;SDS011;19522;45.656;11.302;2023-12-07T02:38:31;5.85;;;3.88;;
33160;SDS011;19522;45.656;11.302;2023-12-07T02:40:57;6.40;;;3.15;;
33160;SDS011;19522;45.656;11.302;2023-12-07T02:43:25;4.50;;;3.58;;
33160;SDS011;19522;45.656;11.302;2023-12-07T02:45:53;4.82;;;2.97;;
33160;SDS011;19522;45.656;11.302;2023-12-07T02:48:20;5.38;;;3.33;;
33160;SDS011;19522;45.656;11.302;2023-12-07T02:50:46;3.80;;;2.85;;
33160;SDS011;19522;45.656;11.302;2023-12-07T02:53:11;4.70;;;3.17;;
33160;SDS011;19522;45.656;11.302;2023-12-07T02:55:37;4.78;;;3.15;;
33160;SDS011;19522;45.656;11.302;2023-12-07T02:58:02;5.25;;;2.92;;
33160;SDS011;19522;45.656;11.302;2023-12-07T03:00:28;6.20;;;3.38;;
33160;SDS011;19522;45.656;11.302;2023-12-07T03:02:54;5.28;;;2.90;;
33160;SDS011;19522;45.656;11.302;2023-12-07T03:05:19;5.68;;;2.97;;
33160;SDS011;19522;45.656;11.302;2023-12-07T03:07:45;4.68;;;2.63;;
33160;SDS011;19522;45.656;11.302;2023-12-07T03:10:11;3.53;;;2.50;;
33160;SDS011;19522;45.656;11.302;2023-12-07T03:12:36;4.65;;;3.00;;
33160;SDS011;19522;45.656;11.302;2023-12-07T03:15:02;5.95;;;2.78;;
33160;SDS011;19522;45.656;11.302;2023-12-07T03:17:29;4.57;;;3.00;;
33160;SDS011;19522;45.656;11.302;2023-12-07T03:19:55;3.85;;;2.60;;
33160;SDS011;19522;45.656;11.302;2023-12-07T03:22:20;4.72;;;3.00;;
33160;SDS011;19522;45.656;11.302;2023-12-07T03:24:46;2.78;;;2.40;;
33160;SDS011;19522;45.656;11.302;2023-12-07T03:27:16;2.78;;;2.30;;
33160;SDS011;19522;45.656;11.302;2023-12-07T03:29:42;3.78;;;2.42;;
33160;SDS011;19522;45.656;11.302;2023-12-07T03:32:08;4.10;;;2.53;;
33160;SDS011;19522;45.656;11.302;2023-12-07T03:34:33;5.40;;;2.45;;
33160;SDS011;19522;45.656;11.302;2023-12-07T03:36:59;3.65;;;2.60;;
33160;SDS011;19522;45.656;11.302;2023-12-07T03:39:24;3.55;;;2.60;;
33160;SDS011;19522;45.656;11.302;2023-12-07T03:41:51;5.53;;;3.25;;
33160;SDS011;19522;45.656;11.302;2023-12-07T03:44:17;5.57;;;2.75;;
33160;SDS011;19522;45.656;11.302;2023-12-07T03:46:42;3.80;;;2.85;;
33160;SDS011;19522;45.656;11.302;2023-12-07T03:49:08;3.33;;;2.20;;
33160;SDS011;19522;45.656;11.302;2023-12-07T03:51:34;4.05;;;2.42;;
33160;SDS011;19522;45.656;11.302;2023-12-07T03:54:01;3.15;;;2.35;;
33160;SDS011;19522;45.656;11.302;2023-12-07T03:56:28;3.80;;;2.40;;
33160;SDS011;19522;45.656;11.302;2023-12-07T03:58:55;3.15;;;2.30;;
33160;SDS011;19522;45.656;11.302;2023-12-07T04:01:24;4.07;;;2.53;;
33160;SDS011;19522;45.656;11.302;2023-12-07T04:03:54;3.75;;;2.60;;
33160;SDS011;19522;45.656;11.302;2023-12-07T04:06:23;3.20;;;2.25;;
33160;SDS011;19522;45.656;11.302;2023-12-07T04:08:52;4.90;;;2.22;;
33160;SDS011;19522;45.656;11.302;2023-12-07T04:11:18;2.55;;;1.92;;
33160;SDS011;19522;45.656;11.302;2023-12-07T04:13:46;3.05;;;1.90;;
33160;SDS011;19522;45.656;11.302;2023-12-07T04:16:12;2.58;;;1.90;;
33160;SDS011;19522;45.656;11.302;2023-12-07T04:18:38;2.83;;;2.22;;
33160;SDS011;19522;45.656;11.302;2023-12-07T04:21:03;3.05;;;1.98;;
33160;SDS011;19522;45.656;11.302;2023-12-07T04:23:30;2.22;;;1.90;;
33160;SDS011;19522;45.656;11.302;2023-12-07T04:25:56;3.58;;;2.42;;
33160;SDS011;19522;45.656;11.302;2023-12-07T04:28:22;4.53;;;3.10;;
33160;SDS011;19522;45.656;11.302;2023-12-07T04:30:47;4.60;;;2.97;;
33160;SDS011;19522;45.656;11.302;2023-12-07T04:33:13;4.75;;;2.67;;
33160;SDS011;19522;45.656;11.302;2023-12-07T04:35:38;6.68;;;3.17;;
33160;SDS011;19522;45.656;11.302;2023-12-07T04:38:07;5.32;;;3.03;;
33160;SDS011;19522;45.656;11.302;2023-12-07T04:40:32;4.90;;;3.42;;
33160;SDS011;19522;45.656;11.302;2023-12-07T04:42:58;4.43;;;2.80;;
33160;SDS011;19522;45.656;11.302;2023-12-07T04:45:24;4.82;;;2.65;;
33160;SDS011;19522;45.656;11.302;2023-12-07T04:47:49;3.67;;;2.60;;
33160;SDS011;19522;45.656;11.302;2023-12-07T04:50:15;5.13;;;2.78;;
33160;SDS011;19522;45.656;11.302;2023-12-07T04:52:40;5.78;;;3.40;;
33160;SDS011;19522;45.656;11.302;2023-12-07T04:55:06;7.38;;;3.30;;
33160;SDS011;19522;45.656;11.302;2023-12-07T04:57:35;4.90;;;3.10;;
33160;SDS011;19522;45.656;11.302;2023-12-07T05:00:02;5.47;;;3.40;;
33160;SDS011;19522;45.656;11.302;2023-12-07T05:02:31;5.72;;;2.95;;
33160;SDS011;19522;45.656;11.302;2023-12-07T05:04:57;4.35;;;3.08;;
33160;SDS011;19522;45.656;11.302;2023-12-07T05:07:22;4.60;;;2.88;;
33160;SDS011;19522;45.656;11.302;2023-12-07T05:09:49;6.53;;;3.40;;
33160;SDS011;19522;45.656;11.302;2023-12-07T05:12:16;3.55;;;2.47;;
33160;SDS011;19522;45.656;11.302;2023-12-07T05:14:42;5.45;;;2.78;;
33160;SDS011;19522;45.656;11.302;2023-12-07T05:17:07;4.28;;;2.40;;
33160;SDS011;19522;45.656;11.302;2023-12-07T05:19:33;4.22;;;2.50;;
33160;SDS011;19522;45.656;11.302;2023-12-07T05:21:58;3.63;;;2.15;;
33160;SDS011;19522;45.656;11.302;2023-12-07T05:24:24;3.58;;;2.38;;
33160;SDS011;19522;45.656;11.302;2023-12-07T05:26:49;4.30;;;3.05;;
33160;SDS011;19522;45.656;11.302;2023-12-07T05:29:15;4.80;;;3.47;;
33160;SDS011;19522;45.656;11.302;2023-12-07T05:31:40;4.47;;;3.25;;
33160;SDS011;19522;45.656;11.302;2023-12-07T05:34:09;3.70;;;2.65;;
33160;SDS011;19522;45.656;11.302;2023-12-07T05:36:35;4.70;;;2.70;;
33160;SDS011;19522;45.656;11.302;2023-12-07T05:39:00;4.97;;;2.75;;
33160;SDS011;19522;45.656;11.302;2023-12-07T05:41:26;4.55;;;2.60;;
33160;SDS011;19522;45.656;11.302;2023-12-07T05:43:52;3.92;;;3.17;;
33160;SDS011;19522;45.656;11.302;2023-12-07T05:46:18;4.43;;;2.70;;
33160;SDS011;19522;45.656;11.302;2023-12-07T05:48:45;3.13;;;2.50;;
33160;SDS011;19522;45.656;11.302;2023-12-07T05:51:15;3.58;;;2.88;;
33160;SDS011;19522;45.656;11.302;2023-12-07T05:53:42;5.93;;;3.83;;
33160;SDS011;19522;45.656;11.302;2023-12-07T05:56:08;5.90;;;4.38;;
33160;SDS011;19522;45.656;11.302;2023-12-07T05:58:34;5.30;;;4.13;;
33160;SDS011;19522;45.656;11.302;2023-12-07T06:01:00;6.90;;;5.68;;
33160;SDS011;19522;45.656;11.302;2023-12-07T06:03:27;6.40;;;5.53;;
33160;SDS011;19522;45.656;11.302;2023-12-07T06:05:53;6.93;;;4.97;;
33160;SDS011;19522;45.656;11.302;2023-12-07T06:08:21;5.68;;;2.90;;
33160;SDS011;19522;45.656;11.302;2023-12-07T06:10:47;3.35;;;2.53;;
33160;SDS011;19522;45.656;11.302;2023-12-07T06:13:13;3.50;;;2.88;;
33160;SDS011;19522;45.656;11.302;2023-12-07T06:15:39;6.57;;;3.42;;
33160;SDS011;19522;45.656;11.302;2023-12-07T06:18:04;5.10;;;4.38;;
33160;SDS011;19522;45.656;11.302;2023-12-07T06:20:30;7.57;;;5.85;;
33160;SDS011;19522;45.656;11.302;2023-12-07T06:22:56;6.05;;;4.82;;
33160;SDS011;19522;45.656;11.302;2023-12-07T06:25:22;6.68;;;5.47;;
33160;SDS011;19522;45.656;11.302;2023-12-07T06:27:48;7.15;;;5.53;;
33160;SDS011;19522;45.656;11.302;2023-12-07T06:30:14;25.17;;;14.45;;
33160;SDS011;19522;45.656;11.302;2023-12-07T06:32:39;24.17;;;13.27;;
33160;SDS011;19522;45.656;11.302;2023-12-07T06:35:05;11.82;;;7.68;;
33160;SDS011;19522;45.656;11.302;2023-12-07T06:37:31;7.90;;;5.78;;
33160;SDS011;19522;45.656;11.302;2023-12-07T06:39:57;8.20;;;6.65;;
33160;SDS011;19522;45.656;11.302;2023-12-07T06:42:23;8.82;;;5.97;;
33160;SDS011;19522;45.656;11.302;2023-12-07T06:44:49;10.32;;;6.72;;
33160;SDS011;19522;45.656;11.302;2023-12-07T06:47:15;15.23;;;10.23;;
33160;SDS011;19522;45.656;11.302;2023-12-07T06:49:41;30.55;;;16.52;;
33160;SDS011;19522;45.656;11.302;2023-12-07T06:52:06;16.63;;;10.02;;
33160;SDS011;19522;45.656;11.302;2023-12-07T06:54:32;33.80;;;17.88;;
33160;SDS011;19522;45.656;11.302;2023-12-07T06:56:58;25.35;;;14.60;;
33160;SDS011;19522;45.656;11.302;2023-12-07T06:59:24;17.15;;;12.60;;
33160;SDS011;19522;45.656;11.302;2023-12-07T07:01:49;19.88;;;13.02;;
33160;SDS011;19522;45.656;11.302;2023-12-07T07:04:18;18.27;;;12.95;;
33160;SDS011;19522;45.656;11.302;2023-12-07T07:06:44;24.65;;;14.85;;
33160;SDS011;19522;45.656;11.302;2023-12-07T07:09:09;22.00;;;12.55;;
33160;SDS011;19522;45.656;11.302;2023-12-07T07:11:35;20.98;;;13.00;;
33160;SDS011;19522;45.656;11.302;2023-12-07T07:14:02;21.73;;;13.02;;
33160;SDS011;19522;45.656;11.302;2023-12-07T07:16:30;18.85;;;10.82;;
33160;SDS011;19522;45.656;11.302;2023-12-07T07:18:56;18.25;;;11.82;;
33160;SDS011;19522;45.656;11.302;2023-12-07T07:21:21;15.00;;;10.32;;
33160;SDS011;19522;45.656;11.302;2023-12-07T07:23:50;14.95;;;9.90;;
33160;SDS011;19522;45.656;11.302;2023-12-07T07:26:15;18.00;;;11.05;;
33160;SDS011;19522;45.656;11.302;2023-12-07T07:28:43;16.08;;;10.60;;
33160;SDS011;19522;45.656;11.302;2023-12-07T07:31:11;13.68;;;10.70;;
33160;SDS011;19522;45.656;11.302;2023-12-07T07:33:36;14.50;;;11.30;;
33160;SDS011;19522;45.656;11.302;2023-12-07T07:36:02;15.65;;;10.20;;
33160;SDS011;19522;45.656;11.302;2023-12-07T07:38:28;14.40;;;10.35;;
33160;SDS011;19522;45.656;11.302;2023-12-07T07:40:53;13.80;;;10.50;;
33160;SDS011;19522;45.656;11.302;2023-12-07T07:43:19;15.63;;;10.40;;
33160;SDS011;19522;45.656;11.302;2023-12-07T07:45:44;14.10;;;9.93;;
33160;SDS011;19522;45.656;11.302;2023-12-07T07:48:11;18.73;;;12.32;;
33160;SDS011;19522;45.656;11.302;2023-12-07T07:50:37;17.13;;;11.32;;
33160;SDS011;19522;45.656;11.302;2023-12-07T07:53:03;17.13;;;11.18;;
33160;SDS011;19522;45.656;11.302;2023-12-07T07:55:29;14.93;;;11.48;;
33160;SDS011;19522;45.656;11.302;2023-12-07T07:57:55;17.95;;;11.82;;
33160;SDS011;19522;45.656;11.302;2023-12-07T08:00:20;21.45;;;13.60;;
33160;SDS011;19522;45.656;11.302;2023-12-07T08:02:46;18.52;;;13.13;;
33160;SDS011;19522;45.656;11.302;2023-12-07T08:05:12;19.13;;;12.52;;
33160;SDS011;19522;45.656;11.302;2023-12-07T08:07:38;17.05;;;11.15;;
33160;SDS011;19522;45.656;11.302;2023-12-07T08:10:05;12.35;;;9.15;;
33160;SDS011;19522;45.656;11.302;2023-12-07T08:12:32;11.75;;;7.95;;
33160;SDS011;19522;45.656;11.302;2023-12-07T08:15:01;14.82;;;9.45;;
33160;SDS011;19522;45.656;11.302;2023-12-07T08:17:27;38.97;;;20.85;;
33160;SDS011;19522;45.656;11.302;2023-12-07T08:19:53;61.00;;;29.48;;
33160;SDS011;19522;45.656;11.302;2023-12-07T08:22:18;65.25;;;34.17;;
33160;SDS011;19522;45.656;11.302;2023-12-07T08:24:45;68.65;;;35.45;;
33160;SDS011;19522;45.656;11.302;2023-12-07T08:27:11;59.72;;;31.52;;
33160;SDS011;19522;45.656;11.302;2023-12-07T08:29:36;51.53;;;28.88;;
33160;SDS011;19522;45.656;11.302;2023-12-07T08:32:02;44.33;;;24.95;;
33160;SDS011;19522;45.656;11.302;2023-12-07T08:34:28;39.28;;;23.35;;
33160;SDS011;19522;45.656;11.302;2023-12-07T08:36:54;40.97;;;21.35;;
33160;SDS011;19522;45.656;11.302;2023-12-07T08:39:19;28.30;;;17.45;;
33160;SDS011;19522;45.656;11.302;2023-12-07T08:41:45;29.17;;;18.60;;
33160;SDS011;19522;45.656;11.302;2023-12-07T08:44:10;22.75;;;15.52;;
33160;SDS011;19522;45.656;11.302;2023-12-07T08:46:36;21.23;;;14.10;;
33160;SDS011;19522;45.656;11.302;2023-12-07T08:49:02;16.48;;;11.55;;
33160;SDS011;19522;45.656;11.302;2023-12-07T08:51:28;17.10;;;12.20;;
33160;SDS011;19522;45.656;11.302;2023-12-07T08:53:54;18.80;;;11.82;;
33160;SDS011;19522;45.656;11.302;2023-12-07T08:56:19;17.08;;;12.95;;
33160;SDS011;19522;45.656;11.302;2023-12-07T08:58:45;14.15;;;9.60;;
33160;SDS011;19522;45.656;11.302;2023-12-07T09:01:11;14.70;;;9.48;;
33160;SDS011;19522;45.656;11.302;2023-12-07T09:03:36;12.77;;;8.45;;
33160;SDS011;19522;45.656;11.302;2023-12-07T09:06:02;10.52;;;5.75;;
33160;SDS011;19522;45.656;11.302;2023-12-07T09:08:28;7.15;;;4.97;;
33160;SDS011;19522;45.656;11.302;2023-12-07T09:10:54;8.23;;;5.57;;
33160;SDS011;19522;45.656;11.302;2023-12-07T09:13:19;8.95;;;5.85;;
33160;SDS011;19522;45.656;11.302;2023-12-07T09:15:45;14.00;;;7.72;;
33160;SDS011;19522;45.656;11.302;2023-12-07T09:18:10;12.38;;;7.90;;
33160;SDS011;19522;45.656;11.302;2023-12-07T09:20:39;11.55;;;7.57;;
33160;SDS011;19522;45.656;11.302;2023-12-07T09:23:11;10.75;;;7.60;;
33160;SDS011;19522;45.656;11.302;2023-12-07T09:25:37;12.35;;;8.05;;
33160;SDS011;19522;45.656;11.302;2023-12-07T09:28:03;14.77;;;11.35;;
33160;SDS011;19522;45.656;11.302;2023-12-07T09:30:29;15.15;;;11.00;;
33160;SDS011;19522;45.656;11.302;2023-12-07T09:32:54;14.85;;;9.07;;
33160;SDS011;19522;45.656;11.302;2023-12-07T09:35:20;11.15;;;8.38;;
33160;SDS011;19522;45.656;11.302;2023-12-07T09:37:46;13.93;;;8.50;;
33160;SDS011;19522;45.656;11.302;2023-12-07T09:40:15;12.50;;;8.05;;
33160;SDS011;19522;45.656;11.302;2023-12-07T09:42:42;14.27;;;8.77;;
33160;SDS011;19522;45.656;11.302;2023-12-07T09:45:08;10.20;;;7.07;;
33160;SDS011;19522;45.656;11.302;2023-12-07T09:47:34;10.07;;;7.72;;
33160;SDS011;19522;45.656;11.302;2023-12-07T09:50:03;13.20;;;8.73;;
33160;SDS011;19522;45.656;11.302;2023-12-07T09:52:34;11.38;;;8.63;;
33160;SDS011;19522;45.656;11.302;2023-12-07T09:55:03;11.05;;;8.45;;
33160;SDS011;19522;45.656;11.302;2023-12-07T09:57:30;11.70;;;8.63;;
33160;SDS011;19522;45.656;11.302;2023-12-07T09:59:56;11.35;;;8.90;;
33160;SDS011;19522;45.656;11.302;2023-12-07T10:02:22;11.98;;;8.30;;
33160;SDS011;19522;45.656;11.302;2023-12-07T10:04:48;11.68;;;9.15;;
33160;SDS011;19522;45.656;11.302;2023-12-07T10:07:14;14.35;;;9.45;;
33160;SDS011;19522;45.656;11.302;2023-12-07T10:09:46;12.23;;;8.88;;
33160;SDS011;19522;45.656;11.302;2023-12-07T10:12:12;11.20;;;8.35;;
33160;SDS011;19522;45.656;11.302;2023-12-07T10:14:38;14.45;;;8.70;;
33160;SDS011;19522;45.656;11.302;2023-12-07T10:17:04;8.85;;;7.90;;
33160;SDS011;19522;45.656;11.302;2023-12-07T10:19:30;12.55;;;8.93;;
33160;SDS011;19522;45.656;11.302;2023-12-07T10:21:56;12.50;;;8.57;;
33160;SDS011;19522;45.656;11.302;2023-12-07T10:24:25;14.02;;;9.55;;
33160;SDS011;19522;45.656;11.302;2023-12-07T10:26:51;14.35;;;10.13;;
33160;SDS011;19522;45.656;11.302;2023-12-07T10:29:17;16.55;;;11.38;;
33160;SDS011;19522;45.656;11.302;2023-12-07T10:31:44;16.30;;;12.70;;
33160;SDS011;19522;45.656;11.302;2023-12-07T10:34:09;25.42;;;14.55;;
33160;SDS011;19522;45.656;11.302;2023-12-07T10:36:35;19.65;;;14.02;;
33160;SDS011;19522;45.656;11.302;2023-12-07T10:39:00;18.20;;;13.77;;
33160;SDS011;19522;45.656;11.302;2023-12-07T10:41:27;22.70;;;14.45;;
33160;SDS011;19522;45.656;11.302;2023-12-07T10:43:54;21.58;;;15.05;;
33160;SDS011;19522;45.656;11.302;2023-12-07T10:46:24;18.45;;;14.02;;
33160;SDS011;19522;45.656;11.302;2023-12-07T10:49:10;17.90;;;13.25;;
33160;SDS011;19522;45.656;11.302;2023-12-07T10:52:06;20.65;;;13.07;;
33160;SDS011;19522;45.656;11.302;2023-12-07T10:54:41;16.17;;;12.48;;
33160;SDS011;19522;45.656;11.302;2023-12-07T10:57:15;15.70;;;12.25;;
33160;SDS011;19522;45.656;11.302;2023-12-07T10:59:42;15.70;;;11.85;;
33160;SDS011;19522;45.656;11.302;2023-12-07T11:02:10;16.75;;;11.82;;
33160;SDS011;19522;45.656;11.302;2023-12-07T11:04:39;13.52;;;9.85;;
33160;SDS011;19522;45.656;11.302;2023-12-07T11:07:07;15.80;;;10.88;;
33160;SDS011;19522;45.656;11.302;2023-12-07T11:09:41;12.95;;;10.07;;
33160;SDS011;19522;45.656;11.302;2023-12-07T11:12:23;13.40;;;10.05;;
33160;SDS011;19522;45.656;11.302;2023-12-07T11:14:59;14.45;;;10.02;;
33160;SDS011;19522;45.656;11.302;2023-12-07T11:17:26;11.18;;;8.05;;
33160;SDS011;19522;45.656;11.302;2023-12-07T11:19:51;12.57;;;8.55;;
33160;SDS011;19522;45.656;11.302;2023-12-07T11:22:17;11.50;;;7.78;;
33160;SDS011;19522;45.656;11.302;2023-12-07T11:24:54;10.30;;;7.00;;
33160;SDS011;19522;45.656;11.302;2023-12-07T11:27:28;8.98;;;7.03;;
33160;SDS011;19522;45.656;11.302;2023-12-07T11:29:57;10.00;;;7.32;;
33160;SDS011;19522;45.656;11.302;2023-12-07T11:32:26;9.93;;;6.70;;
33160;SDS011;19522;45.656;11.302;2023-12-07T11:34:52;9.82;;;6.50;;
33160;SDS011;19522;45.656;11.302;2023-12-07T11:37:17;9.70;;;6.80;;
33160;SDS011;19522;45.656;11.302;2023-12-07T11:39:44;8.57;;;6.50;;
33160;SDS011;19522;45.656;11.302;2023-12-07T11:42:16;10.95;;;7.82;;
33160;SDS011;19522;45.656;11.302;2023-12-07T11:44:44;10.15;;;7.38;;
33160;SDS011;19522;45.656;11.302;2023-12-07T11:47:20;12.00;;;7.85;;
33160;SDS011;19522;45.656;11.302;2023-12-07T11:49:46;12.32;;;7.57;;
33160;SDS011;19522;45.656;11.302;2023-12-07T11:52:16;12.30;;;7.65;;
33160;SDS011;19522;45.656;11.302;2023-12-07T11:54:46;9.85;;;7.45;;
33160;SDS011;19522;45.656;11.302;2023-12-07T11:57:13;11.13;;;7.20;;
33160;SDS011;19522;45.656;11.302;2023-12-07T11:59:40;10.45;;;6.85;;
33160;SDS011;19522;45.656;11.302;2023-12-07T12:02:06;11.18;;;6.47;;
33160;SDS011;19522;45.656;11.302;2023-12-07T12:04:31;9.40;;;6.60;;
33160;SDS011;19522;45.656;11.302;2023-12-07T12:06:57;7.38;;;5.28;;
33160;SDS011;19522;45.656;11.302;2023-12-07T12:09:25;7.60;;;5.30;;
33160;SDS011;19522;45.656;11.302;2023-12-07T12:11:51;7.00;;;5.00;;
33160;SDS011;19522;45.656;11.302;2023-12-07T12:14:16;8.40;;;5.68;;
33160;SDS011;19522;45.656;11.302;2023-12-07T12:16:42;8.57;;;5.60;;
33160;SDS011;19522;45.656;11.302;2023-12-07T12:19:09;9.18;;;6.05;;
33160;SDS011;19522;45.656;11.302;2023-12-07T12:21:36;8.32;;;5.97;;
33160;SDS011;19522;45.656;11.302;2023-12-07T12:24:04;9.15;;;5.32;;
33160;SDS011;19522;45.656;11.302;2023-12-07T12:26:31;9.93;;;5.47;;
33160;SDS011;19522;45.656;11.302;2023-12-07T12:28:59;6.82;;;4.72;;
33160;SDS011;19522;45.656;11.302;2023-12-07T12:31:25;6.95;;;4.43;;
33160;SDS011;19522;45.656;11.302;2023-12-07T12:33:50;6.30;;;4.38;;
33160;SDS011;19522;45.656;11.302;2023-12-07T12:36:16;8.32;;;4.30;;
33160;SDS011;19522;45.656;11.302;2023-12-07T12:38:48;6.07;;;4.40;;
33160;SDS011;19522;45.656;11.302;2023-12-07T12:41:18;6.13;;;3.97;;
33160;SDS011;19522;45.656;11.302;2023-12-07T12:43:44;6.30;;;4.55;;
33160;SDS011;19522;45.656;11.302;2023-12-07T12:46:10;7.47;;;4.90;;
33160;SDS011;19522;45.656;11.302;2023-12-07T12:48:36;9.55;;;5.10;;
33160;SDS011;19522;45.656;11.302;2023-12-07T12:51:08;7.05;;;4.80;;
33160;SDS011;19522;45.656;11.302;2023-12-07T12:53:57;9.65;;;5.40;;
33160;SDS011;19522;45.656;11.302;2023-12-07T12:56:24;7.40;;;5.40;;
33160;SDS011;19522;45.656;11.302;2023-12-07T12:58:51;8.10;;;5.65;;
33160;SDS011;19522;45.656;11.302;2023-12-07T13:01:18;8.10;;;5.72;;
33160;SDS011;19522;45.656;11.302;2023-12-07T13:03:45;8.73;;;5.95;;
33160;SDS011;19522;45.656;11.302;2023-12-07T13:06:12;9.93;;;6.22;;
33160;SDS011;19522;45.656;11.302;2023-12-07T13:08:43;11.25;;;6.43;;
33160;SDS011;19522;45.656;11.302;2023-12-07T13:11:15;8.63;;;6.28;;
33160;SDS011;19522;45.656;11.302;2023-12-07T13:13:41;10.68;;;6.75;;
33160;SDS011;19522;45.656;11.302;2023-12-07T13:16:07;11.95;;;6.95;;
33160;SDS011;19522;45.656;11.302;2023-12-07T13:18:33;12.25;;;8.02;;
33160;SDS011;19522;45.656;11.302;2023-12-07T13:20:58;13.45;;;7.85;;
33160;SDS011;19522;45.656;11.302;2023-12-07T13:23:25;9.07;;;6.85;;
33160;SDS011;19522;45.656;11.302;2023-12-07T13:25:51;12.90;;;8.48;;
33160;SDS011;19522;45.656;11.302;2023-12-07T13:28:16;13.25;;;8.35;;
33160;SDS011;19522;45.656;11.302;2023-12-07T13:30:42;11.30;;;7.47;;
33160;SDS011;19522;45.656;11.302;2023-12-07T13:33:07;14.43;;;9.43;;
33160;SDS011;19522;45.656;11.302;2023-12-07T13:35:34;13.82;;;7.97;;
33160;SDS011;19522;45.656;11.302;2023-12-07T13:38:00;16.25;;;9.25;;
33160;SDS011;19522;45.656;11.302;2023-12-07T13:40:25;14.00;;;7.15;;
33160;SDS011;19522;45.656;11.302;2023-12-07T13:42:52;9.13;;;6.85;;
33160;SDS011;19522;45.656;11.302;2023-12-07T13:45:17;11.02;;;7.32;;
33160;SDS011;19522;45.656;11.302;2023-12-07T13:47:43;11.32;;;7.97;;
33160;SDS011;19522;45.656;11.302;2023-12-07T13:50:09;9.88;;;8.23;;
33160;SDS011;19522;45.656;11.302;2023-12-07T13:52:35;11.95;;;7.60;;
33160;SDS011;19522;45.656;11.302;2023-12-07T13:55:01;11.13;;;7.25;;
33160;SDS011;19522;45.656;11.302;2023-12-07T13:57:27;10.48;;;7.20;;
33160;SDS011;19522;45.656;11.302;2023-12-07T13:59:53;12.70;;;8.48;;
33160;SDS011;19522;45.656;11.302;2023-12-07T14:02:19;12.98;;;8.77;;
33160;SDS011;19522;45.656;11.302;2023-12-07T14:04:45;13.85;;;8.43;;
33160;SDS011;19522;45.656;11.302;2023-12-07T14:07:15;12.02;;;8.23;;
33160;SDS011;19522;45.656;11.302;2023-12-07T14:09:43;14.43;;;9.60;;
33160;SDS011;19522;45.656;11.302;2023-12-07T14:12:10;16.92;;;9.60;;
33160;SDS011;19522;45.656;11.302;2023-12-07T14:14:38;14.70;;;9.30;;
33160;SDS011;19522;45.656;11.302;2023-12-07T14:17:08;15.85;;;9.98;;
33160;SDS011;19522;45.656;11.302;2023-12-07T14:19:34;13.73;;;9.85;;
33160;SDS011;19522;45.656;11.302;2023-12-07T14:22:00;14.35;;;9.80;;
33160;SDS011;19522;45.656;11.302;2023-12-07T14:24:26;11.82;;;8.60;;
33160;SDS011;19522;45.656;11.302;2023-12-07T14:26:52;15.75;;;9.00;;
33160;SDS011;19522;45.656;11.302;2023-12-07T14:29:18;14.45;;;9.45;;